Time;durP1;ratioP1;P1;durP2;ratioP2;P2;SDS_P1;SDS_P2;PMS_P1;PMS_P2;Temp;Humidity;BMP_temperature;BMP_pressure;BME280_temperature;BME280_humidity;BME280_pressure;Samples;Min_cycle;Max_cycle;Signal;HPM_P1;HPM_P2
2021/10/22 00:04:25;;;;;;;2.37;1.27;;;13.70;37.20;;;;;;10310072;28;20316;-74
2021/10/22 00:09:28;;;;;;;2.33;1.00;;;13.70;37.50;;;;;;10305667;28;20238;-74
2021/10/22 00:14:31;;;;;;;2.30;1.07;;;13.60;37.00;;;;;;10306278;28;20246;-74
2021/10/22 00:19:36;;;;;;;2.87;1.10;;;13.60;37.20;;;;;;10313182;28;20580;-74
2021/10/22 00:24:39;;;;;;;1.90;1.10;;;13.60;37.90;;;;;;10308255;28;20250;-74
2021/10/22 00:29:42;;;;;;;3.47;1.30;;;13.60;37.50;;;;;;10316459;28;20250;-74
2021/10/22 00:34:47;;;;;;;2.17;1.37;;;13.50;37.50;;;;;;10307281;28;20239;-74
2021/10/22 00:39:50;;;;;;;3.70;1.00;;;13.50;38.30;;;;;;10300110;28;20782;-74
2021/10/22 00:44:54;;;;;;;0.70;0.70;;;13.50;37.30;;;;;;10303161;28;20362;-74
2021/10/22 00:49:58;;;;;;;1.40;0.70;;;13.40;37.20;;;;;;10310262;28;20758;-74
2021/10/22 00:55:02;;;;;;;0.90;0.50;;;13.30;37.10;;;;;;10306859;28;20237;-74
2021/10/22 01:00:06;;;;;;;0.70;0.67;;;13.20;36.70;;;;;;10304328;28;20244;-74
2021/10/22 01:05:13;;;;;;;0.50;0.50;;;13.10;36.90;;;;;;10304837;28;20228;-74
2021/10/22 01:10:17;;;;;;;0.40;0.40;;;13.10;37.40;;;;;;10302225;28;20232;-74
2021/10/22 01:15:21;;;;;;;0.50;0.50;;;13.10;37.20;;;;;;10313670;28;20774;-74
2021/10/22 01:20:26;;;;;;;0.70;0.50;;;13.10;37.10;;;;;;10310391;28;20235;-74
2021/10/22 01:25:32;;;;;;;0.60;0.60;;;13.10;37.50;;;;;;10313583;28;20234;-74
2021/10/22 01:30:36;;;;;;;1.37;0.60;;;13.00;37.70;;;;;;10315991;28;20241;-74
2021/10/22 01:35:39;;;;;;;0.70;0.70;;;13.00;37.10;;;;;;10314011;28;20235;-74
2021/10/22 01:40:44;;;;;;;0.57;0.57;;;12.90;37.20;;;;;;10311884;28;20231;-74
2021/10/22 01:45:47;;;;;;;0.57;0.57;;;12.90;37.70;;;;;;10306404;28;20235;-74
2021/10/22 01:50:50;;;;;;;0.93;0.60;;;13.00;37.30;;;;;;10315910;28;20227;-74
2021/10/22 01:55:55;;;;;;;0.53;0.53;;;12.90;37.20;;;;;;10316519;28;20227;-74
2021/10/22 02:00:59;;;;;;;0.60;0.60;;;12.90;37.40;;;;;;10314385;28;20238;-74
2021/10/22 02:06:02;;;;;;;0.57;0.50;;;12.90;37.10;;;;;;10315717;28;20245;-74
2021/10/22 02:11:07;;;;;;;0.50;0.50;;;12.90;37.10;;;;;;10313314;28;20247;-74
2021/10/22 02:16:10;;;;;;;0.77;0.50;;;12.90;37.60;;;;;;10317109;28;20245;-74
2021/10/22 02:21:13;;;;;;;0.70;0.70;;;12.80;37.00;;;;;;10317186;28;20738;-74
2021/10/22 02:26:18;;;;;;;0.50;0.50;;;12.80;37.20;;;;;;10318586;28;20234;-74
2021/10/22 02:31:22;;;;;;;0.77;0.50;;;12.80;37.60;;;;;;10320874;28;20227;-74
2021/10/22 02:36:25;;;;;;;1.50;0.70;;;12.70;37.30;;;;;;10309831;28;20290;-74
2021/10/22 02:41:30;;;;;;;1.20;0.90;;;12.60;37.40;;;;;;10312331;28;20234;-74
2021/10/22 02:46:33;;;;;;;1.23;1.10;;;12.50;37.60;;;;;;10316176;28;20231;-74
2021/10/22 02:51:36;;;;;;;1.00;0.90;;;12.40;37.50;;;;;;10307372;28;20274;-73
2021/10/22 02:56:41;;;;;;;1.00;0.90;;;12.30;37.50;;;;;;10305200;28;20246;-73
2021/10/22 03:01:44;;;;;;;1.20;1.10;;;12.30;38.00;;;;;;10310695;28;20234;-74
2021/10/22 03:06:47;;;;;;;1.70;0.90;;;12.30;37.70;;;;;;10309285;28;20770;-74
2021/10/22 03:11:52;;;;;;;1.50;1.07;;;12.30;37.60;;;;;;10306167;28;20565;-74
2021/10/22 03:16:55;;;;;;;0.80;0.80;;;12.30;38.10;;;;;;10309553;28;20238;-74
2021/10/22 03:21:58;;;;;;;1.87;1.00;;;12.20;37.70;;;;;;10307838;28;20224;-74
2021/10/22 03:27:04;;;;;;;1.20;1.10;;;12.30;37.90;;;;;;10311557;28;20227;-74
2021/10/22 03:32:08;;;;;;;1.27;0.90;;;12.20;38.00;;;;;;10310512;28;20247;-74
2021/10/22 03:37:11;;;;;;;1.33;1.23;;;12.20;37.70;;;;;;10311813;28;20242;-74
2021/10/22 03:42:16;;;;;;;3.80;1.47;;;12.20;37.60;;;;;;10308466;28;20309;-73
2021/10/22 03:47:19;;;;;;;2.10;1.20;;;12.20;37.80;;;;;;10303727;28;20261;-73
2021/10/22 03:52:23;;;;;;;3.53;1.20;;;12.20;37.50;;;;;;10304354;28;20232;-74
2021/10/22 03:57:28;;;;;;;2.13;1.03;;;12.10;37.50;;;;;;10299573;28;20242;-74
2021/10/22 04:02:31;;;;;;;2.13;1.00;;;12.10;37.80;;;;;;10302652;28;20231;-74
2021/10/22 04:07:35;;;;;;;1.20;1.10;;;12.10;37.70;;;;;;10304000;28;20237;-74
2021/10/22 04:12:40;;;;;;;1.80;1.20;;;12.10;37.90;;;;;;10306580;28;20314;-75
2021/10/22 04:17:43;;;;;;;2.77;1.27;;;12.10;37.90;;;;;;10304503;28;20235;-75
2021/10/22 04:22:47;;;;;;;2.97;1.40;;;12.10;37.70;;;;;;10304306;28;20235;-75
2021/10/22 04:27:51;;;;;;;2.20;1.00;;;12.10;37.80;;;;;;10307065;28;20253;-75
2021/10/22 04:32:55;;;;;;;2.57;1.50;;;12.10;38.00;;;;;;10306368;28;20223;-75
2021/10/22 04:40:29;;;;;;;2.07;1.40;;;12.00;37.90;;;;;;10306958;28;20231;-74
2021/10/22 04:43:28;;;;;;;3.63;1.40;;;12.00;37.80;;;;;;10304326;28;20227;-74
2021/10/22 04:48:31;;;;;;;2.90;1.50;;;12.00;38.10;;;;;;10303830;28;20234;-74
2021/10/22 04:53:35;;;;;;;2.73;1.30;;;11.90;37.80;;;;;;10316399;28;20251;-74
2021/10/22 04:58:40;;;;;;;2.50;1.20;;;11.90;37.90;;;;;;10314588;28;20239;-74
2021/10/22 05:03:44;;;;;;;3.57;1.40;;;11.80;38.10;;;;;;10310844;28;20728;-74
2021/10/22 05:08:47;;;;;;;5.30;1.60;;;11.70;38.00;;;;;;10313762;28;20329;-74
2021/10/22 05:13:51;;;;;;;5.57;1.80;;;11.70;38.10;;;;;;10317269;28;20630;-74
2021/10/22 05:18:55;;;;;;;3.93;2.50;;;11.70;38.40;;;;;;10316196;28;20305;-75
2021/10/22 05:23:58;;;;;;;5.63;2.40;;;11.70;38.20;;;;;;10316442;28;21023;-75
2021/10/22 05:29:02;;;;;;;2.17;1.50;;;11.70;38.20;;;;;;10319803;28;20223;-75
2021/10/22 05:34:05;;;;;;;3.40;1.50;;;11.70;38.40;;;;;;10319329;28;20231;-75
2021/10/22 05:39:09;;;;;;;3.27;1.70;;;11.70;38.10;;;;;;10318078;28;20238;-77
2021/10/22 05:44:13;;;;;;;6.63;1.60;;;11.70;38.20;;;;;;10299848;28;20242;-77
2021/10/22 05:49:17;;;;;;;4.63;1.60;;;11.70;38.40;;;;;;10304375;28;20239;-77
2021/10/22 05:54:20;;;;;;;2.57;1.40;;;11.70;38.10;;;;;;10305049;28;20227;-77
2021/10/22 05:59:25;;;;;;;4.77;1.57;;;11.80;38.20;;;;;;10305061;28;20236;-77
2021/10/22 06:04:28;;;;;;;3.30;1.30;;;11.80;38.60;;;;;;10307015;28;20584;-77
2021/10/22 06:09:31;;;;;;;3.70;1.60;;;11.80;38.20;;;;;;10317479;28;20235;-77
2021/10/22 06:14:36;;;;;;;4.07;1.50;;;11.80;38.30;;;;;;10305329;28;20780;-77
2021/10/22 06:19:40;;;;;;;4.27;1.40;;;11.90;38.30;;;;;;10308533;28;20227;-77
2021/10/22 06:24:44;;;;;;;3.30;1.37;;;11.90;38.20;;;;;;10308826;28;20235;-77
2021/10/22 06:29:48;;;;;;;6.17;1.70;;;11.90;38.00;;;;;;10313536;28;20243;-77
2021/10/22 06:34:54;;;;;;;3.87;1.40;;;11.80;38.10;;;;;;10314701;28;20595;-78
2021/10/22 06:39:57;;;;;;;3.47;1.70;;;11.80;38.00;;;;;;10311423;28;20238;-77
2021/10/22 06:45:02;;;;;;;4.87;1.67;;;11.80;38.10;;;;;;10308821;28;20230;-77
2021/10/22 06:50:06;;;;;;;2.97;1.40;;;11.90;38.20;;;;;;10311494;28;20730;-77
2021/10/22 06:55:10;;;;;;;6.43;2.00;;;11.80;38.10;;;;;;10311581;28;20231;-76
2021/10/22 07:00:15;;;;;;;4.30;1.60;;;11.80;38.30;;;;;;10311630;28;20246;-77
2021/10/22 07:05:46;;;;;;;6.13;1.70;;;11.70;38.60;;;;;;10310020;28;20735;-77
2021/10/22 07:10:50;;;;;;;5.13;1.83;;;11.70;38.30;;;;;;10310816;28;20697;-77
2021/10/22 07:15:54;;;;;;;6.20;1.80;;;11.70;38.30;;;;;;10313658;28;20228;-76
2021/10/22 07:20:59;;;;;;;5.13;1.90;;;11.70;38.60;;;;;;10312979;28;20278;-77
2021/10/22 07:26:02;;;;;;;6.53;2.10;;;11.70;38.30;;;;;;10303776;28;20231;-77
2021/10/22 07:31:10;;;;;;;4.70;2.00;;;11.60;38.30;;;;;;10307802;28;20226;-76
2021/10/22 07:36:14;;;;;;;6.00;2.10;;;11.70;38.70;;;;;;10303137;28;20791;-77
2021/10/22 07:41:17;;;;;;;5.93;2.20;;;11.70;38.60;;;;;;10312927;28;20237;-77
2021/10/22 07:46:22;;;;;;;5.53;2.23;;;11.70;38.50;;;;;;10305817;28;20231;-77
2021/10/22 07:51:26;;;;;;;8.10;2.73;;;11.70;38.60;;;;;;10299952;28;20239;-77
2021/10/22 07:56:29;;;;;;;6.40;2.47;;;11.70;38.80;;;;;;10305742;28;20237;-77
2021/10/22 08:01:33;;;;;;;4.60;2.20;;;11.70;38.70;;;;;;10302198;28;20733;-77
2021/10/22 08:06:38;;;;;;;7.43;2.47;;;11.80;39.00;;;;;;10309861;28;20239;-76
2021/10/22 08:11:41;;;;;;;5.90;2.80;;;11.90;39.10;;;;;;10303281;28;20234;-77
2021/10/22 08:16:46;;;;;;;10.53;2.90;;;11.90;38.80;;;;;;10309314;28;20242;-77
2021/10/22 08:27:15;;;;;;;5.83;2.17;;;11.90;38.80;;;;;;10302378;28;20234;-77
2021/10/22 08:32:20;;;;;;;5.77;1.90;;;12.00;38.50;;;;;;10307407;28;21579;-76
2021/10/22 08:37:24;;;;;;;5.00;2.10;;;12.00;38.80;;;;;;10303294;28;20232;-77
2021/10/22 08:42:27;;;;;;;8.50;2.20;;;12.10;38.80;;;;;;10299111;28;20242;-77
2021/10/22 08:47:34;;;;;;;5.83;2.17;;;12.20;38.90;;;;;;10304604;28;20230;-77
2021/10/22 08:52:38;;;;;;;4.43;2.03;;;12.30;39.00;;;;;;10301378;28;20235;-77
2021/10/22 08:57:43;;;;;;;9.23;2.20;;;12.40;38.60;;;;;;10298734;28;20236;-78
2021/10/22 09:02:49;;;;;;;7.27;2.30;;;12.40;38.70;;;;;;10308728;28;20232;-78
2021/10/22 09:07:54;;;;;;;6.20;1.93;;;12.50;39.10;;;;;;10309173;28;20244;-76
2021/10/22 09:13:01;;;;;;;8.67;2.30;;;12.60;38.70;;;;;;10305011;28;20564;-77
2021/10/22 09:18:15;;;;;;;5.33;2.03;;;12.70;38.20;;;;;;10303037;28;20235;-76
2021/10/22 09:23:25;;;;;;;5.03;1.70;;;12.70;38.30;;;;;;10303666;28;20829;-76
2021/10/22 09:28:29;;;;;;;7.87;2.00;;;12.80;38.20;;;;;;10301933;28;20708;-76
2021/10/22 09:33:33;;;;;;;6.50;2.10;;;12.80;37.80;;;;;;10303644;28;20242;-76
2021/10/22 09:38:37;;;;;;;6.33;2.40;;;12.80;38.00;;;;;;10308246;28;20597;-76
2021/10/22 09:43:41;;;;;;;8.00;2.90;;;12.90;37.70;;;;;;10309806;28;20317;-76
2021/10/22 09:48:47;;;;;;;9.80;2.40;;;13.00;36.90;;;;;;10311489;28;20234;-76
2021/10/22 09:53:51;;;;;;;8.37;2.40;;;13.00;36.90;;;;;;10306764;28;20233;-79
2021/10/22 09:59:00;;;;;;;12.67;2.60;;;13.00;37.10;;;;;;10318369;28;20238;-78
2021/10/22 10:04:07;;;;;;;11.10;2.20;;;13.00;36.20;;;;;;10310724;28;20246;-77
2021/10/22 10:09:30;;;;;;;10.30;2.10;;;12.90;36.20;;;;;;10309795;28;20236;-77
2021/10/22 10:14:34;;;;;;;7.63;2.00;;;12.90;36.80;;;;;;10310881;28;20231;-77
2021/10/22 10:19:44;;;;;;;6.80;2.00;;;12.90;36.90;;;;;;10309009;28;20326;-78
2021/10/22 10:24:50;;;;;;;8.20;2.20;;;13.10;36.50;;;;;;10312650;28;20231;-78
2021/10/22 10:29:58;;;;;;;8.83;2.30;;;13.30;36.20;;;;;;10308429;28;20245;-78
2021/10/22 10:35:03;;;;;;;9.43;2.17;;;13.40;36.30;;;;;;10310910;28;20246;-79
2021/10/22 10:40:14;;;;;;;11.47;2.40;;;13.60;35.70;;;;;;10315130;28;20730;-82
2021/10/22 10:45:40;;;;;;;5.33;2.10;;;13.70;35.30;;;;;;10305747;28;20232;-78
2021/10/22 10:50:49;;;;;;;7.47;2.20;;;13.80;32.50;;;;;;10305892;28;20251;-77
2021/10/22 10:55:54;;;;;;;6.20;1.97;;;13.90;33.60;;;;;;10307430;28;20222;-77
2021/10/22 11:01:01;;;;;;;5.50;2.40;;;13.90;34.80;;;;;;10311404;28;20235;-80
2021/10/22 11:06:10;;;;;;;6.37;2.07;;;13.90;33.80;;;;;;10309153;28;20235;-78
2021/10/22 11:11:29;;;;;;;5.53;1.90;;;14.00;33.40;;;;;;10303896;28;20774;-79
2021/10/22 11:16:41;;;;;;;5.10;1.90;;;14.00;33.30;;;;;;10306173;28;20314;-77
2021/10/22 11:21:48;;;;;;;9.03;1.77;;;14.10;34.20;;;;;;10300481;28;21782;-79
2021/10/22 11:27:01;;;;;;;5.33;1.83;;;14.20;33.50;;;;;;10303856;28;20231;-76
2021/10/22 11:32:09;;;;;;;5.97;1.87;;;14.20;32.60;;;;;;10302956;28;20756;-76
2021/10/22 11:37:15;;;;;;;5.20;1.87;;;14.20;32.40;;;;;;10302393;28;20738;-79
2021/10/22 11:42:22;;;;;;;4.03;2.00;;;14.20;31.80;;;;;;10300564;28;20237;-78
2021/10/22 11:47:33;;;;;;;4.83;1.80;;;14.10;31.30;;;;;;10299320;28;20235;-77
2021/10/22 11:52:38;;;;;;;5.77;1.70;;;14.00;31.60;;;;;;10306649;28;20233;-79
2021/10/22 11:57:42;;;;;;;4.97;1.67;;;14.10;31.30;;;;;;10307914;28;20267;-79
2021/10/22 12:02:45;;;;;;;4.20;1.67;;;14.10;32.50;;;;;;10313798;28;20262;-78
2021/10/22 12:07:51;;;;;;;5.63;2.00;;;14.20;32.90;;;;;;10309271;28;20599;-78
2021/10/22 12:12:56;;;;;;;6.87;2.10;;;14.20;31.40;;;;;;10311375;28;20238;-78
2021/10/22 12:18:01;;;;;;;6.13;1.70;;;14.30;31.50;;;;;;10304200;28;20239;-80
2021/10/22 12:23:06;;;;;;;4.60;1.77;;;14.30;31.50;;;;;;10306296;28;20735;-79
2021/10/22 12:28:14;;;;;;;7.20;1.73;;;14.40;31.60;;;;;;10307328;28;20274;-80
2021/10/22 12:33:17;;;;;;;3.40;1.60;;;14.40;31.60;;;;;;10305095;28;20235;-78
2021/10/22 12:38:29;;;;;;;4.27;1.40;;;14.50;31.70;;;;;;10310136;28;20238;-77
2021/10/22 12:43:36;;;;;;;6.50;1.90;;;14.50;30.70;;;;;;10312309;28;20286;-82
2021/10/22 12:48:47;;;;;;;4.07;1.50;;;14.40;31.60;;;;;;10309035;28;20231;-79
2021/10/22 12:53:59;;;;;;;4.47;1.87;;;14.40;29.90;;;;;;10306521;28;20226;-80
2021/10/22 12:59:06;;;;;;;6.33;1.60;;;14.50;30.70;;;;;;10302509;28;20231;-80
2021/10/22 13:04:11;;;;;;;4.13;1.30;;;14.50;30.40;;;;;;10314394;28;20228;-79
2021/10/22 13:15:03;;;;;;;5.87;1.80;;;14.50;30.40;;;;;;10318497;28;20238;-78
2021/10/22 13:20:24;;;;;;;4.50;1.57;;;14.50;31.00;;;;;;10325615;28;20710;-79
2021/10/22 13:25:28;;;;;;;4.87;1.57;;;14.50;30.90;;;;;;10321764;28;20238;-78
2021/10/22 13:30:36;;;;;;;5.83;1.40;;;14.60;30.40;;;;;;10319978;28;20231;-79
2021/10/22 13:35:40;;;;;;;2.63;1.30;;;14.60;30.50;;;;;;10311258;28;20235;-79
2021/10/22 13:40:44;;;;;;;3.90;1.20;;;14.60;30.00;;;;;;10311571;28;20250;-79
2021/10/22 13:45:47;;;;;;;5.37;1.60;;;14.60;29.90;;;;;;10316298;28;20347;-78
2021/10/22 13:50:51;;;;;;;3.33;1.37;;;14.60;30.00;;;;;;10312715;28;20225;-79
2021/10/22 13:55:56;;;;;;;6.03;1.33;;;14.60;29.90;;;;;;10319685;28;20227;-79
2021/10/22 14:01:00;;;;;;;4.00;1.10;;;14.60;29.60;;;;;;10312101;28;20228;-80
2021/10/22 14:06:05;;;;;;;3.30;1.10;;;14.60;29.80;;;;;;10309078;28;20255;-79
2021/10/22 14:11:11;;;;;;;4.63;1.67;;;14.60;29.80;;;;;;10321306;28;20235;-79
2021/10/22 14:16:27;;;;;;;3.63;1.30;;;14.60;29.30;;;;;;10313713;28;20696;-79
2021/10/22 14:32:15;;;;;;;3.70;1.30;;;14.60;29.40;;;;;;10305875;28;20231;-79
2021/10/22 14:37:18;;;;;;;2.37;1.20;;;14.60;29.30;;;;;;10302183;28;20730;-79
2021/10/22 14:42:28;;;;;;;5.30;1.20;;;14.50;29.00;;;;;;10316683;28;20239;-79
2021/10/22 14:47:39;;;;;;;3.17;1.17;;;14.50;28.80;;;;;;10307175;28;20585;-80
2021/10/22 14:52:58;;;;;;;3.27;1.30;;;14.50;29.20;;;;;;10309284;28;20235;-79
2021/10/22 14:58:06;;;;;;;1.70;1.10;;;14.50;29.10;;;;;;10312262;28;20230;-78
2021/10/22 15:03:12;;;;;;;2.40;1.13;;;14.50;28.60;;;;;;10310647;28;20730;-78
2021/10/22 15:08:16;;;;;;;4.07;1.30;;;14.50;28.80;;;;;;10311676;28;20227;-80
2021/10/22 15:13:21;;;;;;;3.73;1.50;;;14.50;28.80;;;;;;10315128;28;20231;-79
2021/10/22 15:18:24;;;;;;;4.40;1.30;;;14.40;28.10;;;;;;10311139;28;20262;-78
2021/10/22 15:23:27;;;;;;;2.50;1.10;;;14.30;28.80;;;;;;10312485;28;20255;-80
2021/10/22 15:28:32;;;;;;;4.77;1.23;;;14.30;28.70;;;;;;10313092;28;20238;-79
2021/10/22 15:33:36;;;;;;;2.73;1.20;;;14.30;28.40;;;;;;10312216;28;20720;-79
2021/10/22 15:38:39;;;;;;;2.67;1.47;;;14.20;28.60;;;;;;10313548;28;20748;-79
2021/10/22 15:43:43;;;;;;;3.43;1.50;;;14.20;28.60;;;;;;10319326;28;20237;-79
2021/10/22 15:48:47;;;;;;;2.20;1.20;;;14.10;28.10;;;;;;10315763;28;20239;-79
2021/10/22 15:53:51;;;;;;;4.33;1.40;;;14.00;28.60;;;;;;10311244;28;20233;-80
2021/10/22 15:58:56;;;;;;;4.13;1.50;;;13.90;28.40;;;;;;10321586;28;20245;-79
2021/10/22 16:03:59;;;;;;;3.50;1.20;;;13.80;28.40;;;;;;10308051;28;20234;-80
2021/10/22 16:09:03;;;;;;;3.03;1.57;;;13.80;28.70;;;;;;10308085;28;20746;-81
2021/10/22 16:14:38;;;;;;;2.97;1.33;;;13.70;28.70;;;;;;10316764;28;20242;-82
2021/10/22 16:19:41;;;;;;;1.93;1.30;;;13.70;28.60;;;;;;10322243;28;20242;-82
2021/10/22 16:24:45;;;;;;;3.60;1.10;;;13.70;28.60;;;;;;10327586;28;20242;-81
2021/10/22 16:29:49;;;;;;;4.37;1.30;;;13.70;28.60;;;;;;10323755;28;20771;-80
2021/10/22 16:40:13;;;;;;;3.53;1.53;;;13.60;28.60;;;;;;10324279;28;20258;-80
2021/10/22 16:45:18;;;;;;;2.63;1.17;;;13.50;28.50;;;;;;10324207;28;20238;-81
2021/10/22 16:50:21;;;;;;;3.37;1.57;;;13.40;28.60;;;;;;10329359;28;20245;-80
2021/10/22 16:55:27;;;;;;;3.13;1.70;;;13.30;28.90;;;;;;10323268;28;20595;-80
2021/10/22 17:00:32;;;;;;;4.40;1.40;;;13.30;28.60;;;;;;10330603;28;20241;-80
2021/10/22 17:05:35;;;;;;;3.47;1.47;;;13.30;28.40;;;;;;10330503;28;20264;-80
2021/10/22 17:10:39;;;;;;;4.47;1.50;;;13.20;28.50;;;;;;10329617;28;20261;-79
2021/10/22 17:15:43;;;;;;;3.43;1.47;;;13.20;28.60;;;;;;10324146;28;20228;-80
2021/10/22 17:20:46;;;;;;;2.13;1.47;;;13.20;28.60;;;;;;10318917;28;20248;-80
2021/10/22 17:25:49;;;;;;;3.17;1.63;;;13.20;28.90;;;;;;10331233;28;20227;-79
2021/10/22 17:30:56;;;;;;;2.40;1.60;;;13.10;29.00;;;;;;10331009;28;20234;-79
2021/10/22 17:35:59;;;;;;;4.10;2.10;;;13.00;29.00;;;;;;10320348;28;20216;-79
2021/10/22 17:41:02;;;;;;;4.10;2.17;;;12.90;29.00;;;;;;10321305;28;20287;-79
2021/10/22 17:46:07;;;;;;;4.50;2.73;;;12.80;29.10;;;;;;10322319;28;20318;-80
2021/10/22 17:51:11;;;;;;;5.57;2.60;;;12.60;29.00;;;;;;10324107;28;20258;-79
2021/10/22 17:56:16;;;;;;;6.87;3.53;;;12.50;29.20;;;;;;10318772;28;20253;-78
2021/10/22 18:01:20;;;;;;;6.97;3.70;;;12.40;29.30;;;;;;10330920;28;20242;-78
2021/10/22 18:06:23;;;;;;;3.50;3.20;;;12.30;29.40;;;;;;10329070;28;20617;-78
2021/10/22 18:11:27;;;;;;;6.20;4.33;;;12.10;29.70;;;;;;10323358;28;20227;-78
2021/10/22 18:16:32;;;;;;;5.00;3.93;;;12.00;29.60;;;;;;10319777;28;20687;-78
2021/10/22 18:21:35;;;;;;;5.43;3.90;;;11.80;29.50;;;;;;10328912;28;20249;-78
2021/10/22 18:26:39;;;;;;;4.03;3.50;;;11.70;29.50;;;;;;10322638;28;20833;-77
2021/10/22 18:31:46;;;;;;;4.77;3.37;;;11.60;29.40;;;;;;10320309;28;20231;-78
2021/10/22 18:36:51;;;;;;;7.23;3.50;;;11.50;29.70;;;;;;10323637;28;20236;-78
2021/10/22 18:41:54;;;;;;;6.00;3.90;;;11.40;29.50;;;;;;10321779;28;20237;-78
2021/10/22 18:47:00;;;;;;;5.23;3.40;;;11.30;29.60;;;;;;10320647;28;20239;-78
2021/10/22 18:52:05;;;;;;;5.13;3.93;;;11.20;29.70;;;;;;10325505;28;20302;-79
2021/10/22 18:57:09;;;;;;;4.33;3.60;;;11.10;29.70;;;;;;10324404;28;20305;-78
2021/10/22 19:02:15;;;;;;;4.43;2.40;;;11.00;29.60;;;;;;10318308;28;20231;-77
2021/10/22 19:07:19;;;;;;;4.43;2.17;;;10.90;29.70;;;;;;10306376;28;20245;-78
2021/10/22 19:12:23;;;;;;;4.87;2.93;;;10.80;29.80;;;;;;10309809;28;20254;-78
2021/10/22 19:17:28;;;;;;;4.93;2.50;;;10.70;29.90;;;;;;10300614;28;20329;-78
2021/10/22 19:22:31;;;;;;;3.70;2.60;;;10.50;30.00;;;;;;10312248;28;20314;-79
2021/10/22 19:27:35;;;;;;;5.70;2.70;;;10.50;30.20;;;;;;10315636;28;20223;-79
2021/10/22 19:32:39;;;;;;;3.20;2.50;;;10.40;30.30;;;;;;10313827;28;20249;-79
2021/10/22 19:37:42;;;;;;;4.27;2.30;;;10.40;30.60;;;;;;10309959;28;20244;-79
2021/10/22 19:42:46;;;;;;;6.10;2.50;;;10.40;30.80;;;;;;10307431;28;20242;-79
2021/10/22 19:47:51;;;;;;;3.77;2.10;;;10.40;30.90;;;;;;10298717;28;20261;-79
2021/10/22 19:52:54;;;;;;;3.63;1.90;;;10.50;31.20;;;;;;10310479;28;20239;-79
2021/10/22 19:57:57;;;;;;;4.17;1.83;;;10.50;31.00;;;;;;10309715;28;20234;-79
2021/10/22 20:03:02;;;;;;;4.57;2.10;;;10.50;31.00;;;;;;10313571;28;20242;-79
2021/10/22 20:08:05;;;;;;;5.20;2.50;;;10.50;31.20;;;;;;10315018;28;20278;-80
2021/10/22 20:13:09;;;;;;;4.20;1.70;;;10.40;31.20;;;;;;10314570;28;20233;-79
2021/10/22 20:18:14;;;;;;;3.23;1.80;;;10.40;31.20;;;;;;10310503;28;20235;-78
2021/10/22 20:23:17;;;;;;;6.33;2.70;;;10.40;31.40;;;;;;10305001;28;20236;-78
2021/10/22 20:28:20;;;;;;;2.73;2.10;;;10.30;31.20;;;;;;10323237;28;20238;-79
2021/10/22 20:33:25;;;;;;;3.50;1.90;;;10.30;31.30;;;;;;10314809;28;20227;-79
2021/10/22 20:38:28;;;;;;;5.70;2.03;;;10.20;31.40;;;;;;10309768;28;20755;-79
2021/10/22 20:43:32;;;;;;;3.50;2.10;;;10.20;31.40;;;;;;10316950;28;20276;-79
2021/10/22 20:48:45;;;;;;;4.93;1.90;;;10.20;31.50;;;;;;10315290;28;20237;-79
2021/10/22 20:59:11;;;;;;;4.67;1.50;;;10.20;31.70;;;;;;10306483;28;20237;-80
2021/10/22 21:04:16;;;;;;;3.63;1.60;;;10.10;31.70;;;;;;10322426;28;20230;-79
2021/10/22 21:09:19;;;;;;;3.90;1.77;;;10.20;31.80;;;;;;10309061;28;20306;-79
2021/10/22 21:14:23;;;;;;;5.20;1.77;;;10.20;31.80;;;;;;10304699;28;20245;-79
2021/10/22 21:19:28;;;;;;;3.60;1.20;;;10.30;31.80;;;;;;10307826;28;20234;-79
2021/10/22 21:24:32;;;;;;;4.37;1.40;;;10.30;31.90;;;;;;10304571;28;20229;-79
2021/10/22 21:29:36;;;;;;;4.60;1.70;;;10.30;31.80;;;;;;10305362;28;20239;-79
2021/10/22 21:34:40;;;;;;;4.77;1.40;;;10.30;31.90;;;;;;10314476;28;20765;-80
2021/10/22 21:39:44;;;;;;;2.03;1.60;;;10.40;32.00;;;;;;10321296;28;20249;-80
2021/10/22 21:44:47;;;;;;;2.20;1.40;;;10.40;32.00;;;;;;10312083;28;20238;-79
2021/10/22 21:49:51;;;;;;;2.20;1.33;;;10.30;31.90;;;;;;10317210;28;20239;-79
2021/10/22 21:54:55;;;;;;;3.77;1.60;;;10.30;32.10;;;;;;10307962;28;20228;-79
2021/10/22 21:59:58;;;;;;;4.83;1.60;;;10.40;32.20;;;;;;10313389;28;20234;-79
2021/10/22 22:05:03;;;;;;;3.77;1.87;;;10.40;32.20;;;;;;10316061;28;20222;-79
2021/10/22 22:10:10;;;;;;;3.93;1.40;;;10.40;32.30;;;;;;10313339;28;20718;-79
2021/10/22 22:15:14;;;;;;;3.67;1.70;;;10.50;32.30;;;;;;10311185;28;20245;-79
2021/10/22 22:20:21;;;;;;;2.93;1.60;;;10.50;32.20;;;;;;10323087;28;20230;-79
2021/10/22 22:25:26;;;;;;;3.53;1.40;;;10.50;32.10;;;;;;10313755;28;20238;-79
2021/10/22 22:30:31;;;;;;;2.30;1.50;;;10.50;32.20;;;;;;10306383;28;20782;-80
2021/10/22 22:35:36;;;;;;;3.37;1.60;;;10.60;32.20;;;;;;10321789;28;20237;-80
2021/10/22 22:40:39;;;;;;;3.10;1.57;;;10.60;32.20;;;;;;10314439;28;20241;-80
2021/10/22 22:45:43;;;;;;;3.60;1.70;;;10.60;32.10;;;;;;10318747;28;20231;-79
2021/10/22 22:50:48;;;;;;;3.00;1.40;;;10.60;32.20;;;;;;10318635;28;20641;-80
2021/10/22 22:55:51;;;;;;;4.53;1.70;;;10.60;32.40;;;;;;10323464;28;20233;-80
2021/10/22 23:00:55;;;;;;;3.20;1.67;;;10.60;32.30;;;;;;10324374;28;20236;-80
2021/10/22 23:05:59;;;;;;;3.97;1.70;;;10.50;32.30;;;;;;10313627;28;20274;-80
2021/10/22 23:11:03;;;;;;;3.47;1.57;;;10.60;32.50;;;;;;10323375;28;20238;-80
2021/10/22 23:16:06;;;;;;;2.43;1.30;;;10.60;32.40;;;;;;10306784;28;20235;-80
2021/10/22 23:21:11;;;;;;;4.70;1.60;;;10.70;32.40;;;;;;10315909;28;20256;-80
2021/10/22 23:26:14;;;;;;;4.43;1.70;;;10.70;32.50;;;;;;10321301;28;20245;-80
2021/10/22 23:31:17;;;;;;;3.23;1.57;;;10.70;32.40;;;;;;10313799;28;20238;-80
2021/10/22 23:36:22;;;;;;;3.27;1.50;;;10.80;32.40;;;;;;10314592;28;20898;-80
2021/10/22 23:41:25;;;;;;;3.83;1.43;;;10.80;32.40;;;;;;10325469;28;20231;-80
2021/10/22 23:46:28;;;;;;;2.63;1.33;;;10.80;32.40;;;;;;10307770;28;20243;-80
2021/10/22 23:51:33;;;;;;;2.70;1.53;;;10.70;32.40;;;;;;10319483;28;20784;-80
2021/10/22 23:56:37;;;;;;;3.27;1.50;;;10.60;32.60;;;;;;10307120;28;20235;-80
